createdAt,value
2022-11-12T00:03:52.334Z,1.92
2022-11-12T00:09:01.491Z,2.13
2022-11-12T00:11:29.019Z,2.28
2022-11-12T00:13:56.588Z,3.38
2022-11-12T00:16:24.136Z,2.33
2022-11-12T00:18:51.599Z,2.85
2022-11-12T00:21:19.125Z,2.25
2022-11-12T00:23:46.689Z,3.08
2022-11-12T00:26:14.257Z,2.80
2022-11-12T00:28:41.755Z,2.63
2022-11-12T00:31:10.475Z,3.13
2022-11-12T00:36:22.454Z,2.88
2022-11-12T00:38:50.047Z,2.00
2022-11-12T00:41:17.730Z,2.75
2022-11-12T00:43:45.372Z,2.90
2022-11-12T00:46:13.054Z,3.50
2022-11-12T00:48:40.602Z,2.88
2022-11-12T00:51:08.648Z,2.97
2022-11-12T00:53:36.174Z,2.47
2022-11-12T00:56:07.551Z,4.68
2022-11-12T00:58:36.212Z,3.60
2022-11-12T01:01:11.227Z,3.08
2022-11-12T01:03:39.608Z,3.97
2022-11-12T01:06:08.122Z,4.38
2022-11-12T01:08:36.422Z,3.30
2022-11-12T01:11:08.293Z,3.80
2022-11-12T01:13:38.843Z,4.60
2022-11-12T01:16:12.233Z,5.57
2022-11-12T01:18:40.213Z,4.13
2022-11-12T01:21:08.106Z,5.30
2022-11-12T01:23:36.948Z,5.75
2022-11-12T01:26:05.520Z,6.40
2022-11-12T01:28:33.477Z,6.13
2022-11-12T01:31:21.125Z,6.28
2022-11-12T01:33:49.961Z,5.53
2022-11-12T01:36:18.965Z,5.57
2022-11-12T01:38:47.064Z,5.90
2022-11-12T01:41:19.723Z,4.53
2022-11-12T01:43:47.729Z,6.47
2022-11-12T01:46:21.106Z,7.03
2022-11-12T01:48:51.609Z,5.00
2022-11-12T01:51:20.968Z,5.53
2022-11-12T01:53:50.776Z,5.68
2022-11-12T01:56:18.947Z,6.15
2022-11-12T01:58:47.906Z,5.88
2022-11-12T02:01:15.748Z,7.57
2022-11-12T02:03:43.456Z,5.32
2022-11-12T02:06:12.879Z,5.28
2022-11-12T02:08:41.035Z,5.65
2022-11-12T02:11:17.130Z,6.05
2022-11-12T02:14:03.448Z,5.28
2022-11-12T02:16:39.133Z,5.32
2022-11-12T02:19:08.280Z,5.25
2022-11-12T02:21:36.020Z,4.85
2022-11-12T02:24:05.054Z,5.95
2022-11-12T02:26:37.878Z,5.45
2022-11-12T02:29:05.766Z,5.75
2022-11-12T02:31:33.287Z,5.47
2022-11-12T02:34:00.821Z,5.47
2022-11-12T02:36:28.701Z,5.95
2022-11-12T02:38:56.484Z,6.13
2022-11-12T02:41:24.063Z,6.30
2022-11-12T02:43:51.627Z,7.03
2022-11-12T02:46:19.206Z,5.97
2022-11-12T02:48:47.798Z,6.68
2022-11-12T02:51:15.339Z,5.90
2022-11-12T02:53:42.859Z,5.72
2022-11-12T02:56:10.349Z,7.05
2022-11-12T02:58:37.876Z,6.40
2022-11-12T03:01:06.170Z,7.38
2022-11-12T03:03:34.041Z,6.72
2022-11-12T03:06:02.419Z,8.10
2022-11-12T03:08:30.053Z,6.75
2022-11-12T03:10:57.697Z,9.23
2022-11-12T03:13:25.398Z,6.90
2022-11-12T03:15:59.337Z,6.25
2022-11-12T03:18:27.141Z,6.78
2022-11-12T03:20:55.292Z,6.32
2022-11-12T03:23:22.813Z,7.03
2022-11-12T03:25:50.466Z,6.68
2022-11-12T03:28:18.314Z,7.10
2022-11-12T03:30:46.452Z,7.13
2022-11-12T03:33:15.744Z,6.07
2022-11-12T03:35:43.548Z,6.10
2022-11-12T03:38:11.276Z,5.60
2022-11-12T03:40:38.838Z,5.22
2022-11-12T03:43:06.417Z,5.18
2022-11-12T03:45:33.976Z,5.75
2022-11-12T03:48:01.628Z,5.60
2022-11-12T03:50:30.260Z,6.45
2022-11-12T03:52:59.188Z,6.28
2022-11-12T03:55:28.443Z,5.68
2022-11-12T03:57:56.805Z,4.78
2022-11-12T04:00:25.715Z,5.25
2022-11-12T04:02:53.335Z,5.95
2022-11-12T04:05:39.584Z,4.47
2022-11-12T04:08:36.375Z,4.30
2022-11-12T04:11:05.629Z,3.60
2022-11-12T04:13:33.450Z,2.67
2022-11-12T04:16:19.274Z,2.80
2022-11-12T04:19:06.219Z,2.45
2022-11-12T04:21:53.397Z,2.15
2022-11-12T04:24:53.202Z,1.35
2022-11-12T04:27:30.840Z,1.63
2022-11-12T04:30:16.799Z,1.65
2022-11-12T04:32:55.303Z,0.80
2022-11-12T04:35:25.206Z,0.50
2022-11-12T04:37:53.122Z,0.95
2022-11-12T04:40:40.822Z,0.73
2022-11-12T04:43:28.775Z,0.90
2022-11-12T04:45:58.858Z,0.75
2022-11-12T04:48:26.765Z,0.93
2022-11-12T04:50:55.452Z,1.13
2022-11-12T04:53:23.420Z,1.05
2022-11-12T04:55:51.793Z,1.33
2022-11-12T04:58:19.468Z,1.40
2022-11-12T05:00:47.352Z,1.33
2022-11-12T05:03:14.968Z,1.60
2022-11-12T05:05:42.477Z,1.58
2022-11-12T05:08:10.007Z,1.58
2022-11-12T05:10:37.646Z,1.83
2022-11-12T05:13:05.268Z,1.52
2022-11-12T05:15:32.883Z,1.40
2022-11-12T05:18:00.425Z,0.80
2022-11-12T05:20:28.623Z,1.27
2022-11-12T05:23:06.261Z,1.58
2022-11-12T05:25:36.364Z,1.02
2022-11-12T05:28:05.650Z,1.02
2022-11-12T05:30:34.272Z,1.50
2022-11-12T05:33:01.786Z,1.63
2022-11-12T05:35:29.324Z,1.27
2022-11-12T05:37:56.842Z,1.45
2022-11-12T05:40:24.393Z,1.67
2022-11-12T05:42:51.974Z,1.42
2022-11-12T05:45:19.471Z,1.25
2022-11-12T05:47:47.109Z,1.70
2022-11-12T05:50:14.829Z,1.05
2022-11-12T05:52:43.363Z,1.38
2022-11-12T05:55:11.168Z,1.08
2022-11-12T05:57:39.668Z,2.45
2022-11-12T06:00:07.918Z,1.20
2022-11-12T06:02:35.594Z,1.88
2022-11-12T06:05:03.522Z,1.60
2022-11-12T06:07:31.064Z,1.48
2022-11-12T06:09:59.333Z,1.40
2022-11-12T06:12:26.912Z,1.45
2022-11-12T06:14:54.473Z,1.73
2022-11-12T06:17:22.009Z,1.60
2022-11-12T06:19:49.569Z,2.17
2022-11-12T06:22:17.088Z,1.25
2022-11-12T06:24:44.628Z,1.23
2022-11-12T06:27:12.223Z,1.20
2022-11-12T06:29:39.790Z,1.13
2022-11-12T06:32:07.278Z,0.82
2022-11-12T06:34:35.688Z,1.02
2022-11-12T06:37:03.186Z,1.45
2022-11-12T06:39:30.711Z,2.38
2022-11-12T06:41:59.821Z,1.45
2022-11-12T06:44:27.357Z,2.10
2022-11-12T06:46:54.897Z,1.50
2022-11-12T06:49:22.494Z,1.30
2022-11-12T06:51:51.151Z,2.17
2022-11-12T06:54:18.689Z,1.90
2022-11-12T06:56:46.361Z,2.33
2022-11-12T06:59:13.974Z,1.98
2022-11-12T07:01:42.042Z,1.55
2022-11-12T07:04:11.166Z,2.58
2022-11-12T07:06:39.057Z,0.88
2022-11-12T07:09:07.306Z,1.27
2022-11-12T07:11:34.833Z,1.73
2022-11-12T07:14:02.293Z,1.67
2022-11-12T07:16:29.913Z,0.90
2022-11-12T07:18:57.456Z,1.23
2022-11-12T07:21:25.066Z,1.20
2022-11-12T07:23:52.616Z,1.63
2022-11-12T07:26:21.887Z,1.10
2022-11-12T07:28:50.922Z,0.88
2022-11-12T07:31:19.428Z,1.35
2022-11-12T07:33:47.162Z,1.80
2022-11-12T07:36:15.728Z,1.00
2022-11-12T07:38:44.756Z,1.13
2022-11-12T07:41:19.452Z,1.15
2022-11-12T07:43:47.925Z,1.20
2022-11-12T07:46:17.136Z,1.20
2022-11-12T07:48:45.687Z,1.23
2022-11-12T07:51:15.242Z,1.25
2022-11-12T07:53:43.571Z,0.80
2022-11-12T07:56:15.261Z,1.02
2022-11-12T07:58:43.179Z,1.35
2022-11-12T08:01:29.286Z,0.55
2022-11-12T08:03:57.149Z,1.33
2022-11-12T08:06:25.094Z,1.40
2022-11-12T08:08:53.579Z,1.05
2022-11-12T08:11:21.261Z,1.30
2022-11-12T08:13:48.801Z,1.30
2022-11-12T08:16:16.760Z,1.10
2022-11-12T08:18:44.947Z,0.93
2022-11-12T08:21:17.005Z,1.30
2022-11-12T08:23:45.278Z,1.23
2022-11-12T08:26:13.913Z,1.30
2022-11-12T08:28:42.492Z,1.52
2022-11-12T08:31:13.927Z,0.95
2022-11-12T08:33:41.977Z,0.88
2022-11-12T08:36:11.002Z,1.13
2022-11-12T08:38:42.685Z,0.90
2022-11-12T08:41:11.921Z,0.70
2022-11-12T08:43:39.900Z,0.95
2022-11-12T08:46:07.466Z,0.68
2022-11-12T08:48:35.182Z,0.77
2022-11-12T08:51:03.247Z,1.08
2022-11-12T08:53:30.874Z,1.20
2022-11-12T08:55:59.497Z,0.95
2022-11-12T08:58:27.888Z,0.88
2022-11-12T09:00:56.014Z,0.60
2022-11-12T09:03:25.754Z,0.63
2022-11-12T09:05:53.691Z,0.65
2022-11-12T09:08:23.071Z,1.40
2022-11-12T09:10:50.976Z,1.40
2022-11-12T09:13:19.205Z,0.65
2022-11-12T09:15:47.693Z,0.70
2022-11-12T09:18:16.254Z,0.77
2022-11-12T09:20:44.187Z,0.50
2022-11-12T09:23:13.451Z,1.00
2022-11-12T09:25:41.360Z,0.47
2022-11-12T09:28:16.352Z,0.60
2022-11-12T09:30:49.110Z,0.38
2022-11-12T09:33:17.748Z,0.40
2022-11-12T09:35:46.222Z,1.02
2022-11-12T09:38:17.598Z,0.60
2022-11-12T09:40:54.045Z,0.90
2022-11-12T09:43:28.743Z,0.70
2022-11-12T09:46:21.565Z,0.75
2022-11-12T09:48:48.188Z,0.45
2022-11-12T09:51:25.956Z,0.30
2022-11-12T09:53:56.719Z,0.60
2022-11-12T09:56:24.579Z,0.80
2022-11-12T09:58:52.496Z,0.82
2022-11-12T10:01:23.150Z,0.52
2022-11-12T10:04:09.282Z,0.60
2022-11-12T10:06:40.216Z,0.43
2022-11-12T10:09:30.156Z,0.60
2022-11-12T10:12:18.711Z,0.80
2022-11-12T10:15:00.506Z,0.93
2022-11-12T10:17:27.994Z,0.60
2022-11-12T10:19:58.755Z,0.65
2022-11-12T10:22:30.023Z,0.50
2022-11-12T10:24:57.842Z,0.68
2022-11-12T10:27:28.544Z,0.88
2022-11-12T10:30:00.130Z,0.98
2022-11-12T10:32:28.321Z,0.52
2022-11-12T10:34:57.396Z,1.02
2022-11-12T10:37:28.459Z,1.00
2022-11-12T10:39:55.982Z,0.88
2022-11-12T10:42:24.276Z,0.95
2022-11-12T10:44:55.277Z,1.10
2022-11-12T10:47:31.144Z,1.13
2022-11-12T10:50:13.785Z,1.13
2022-11-12T10:52:53.298Z,1.20
2022-11-12T10:55:40.097Z,1.02
2022-11-12T10:58:10.663Z,0.93
2022-11-12T11:00:39.633Z,0.80
2022-11-12T11:03:08.607Z,1.00
2022-11-12T11:05:37.717Z,1.10
2022-11-12T11:08:05.880Z,1.42
2022-11-12T11:10:34.554Z,0.80
2022-11-12T11:13:17.491Z,0.73
2022-11-12T11:15:58.487Z,0.60
2022-11-12T11:18:26.416Z,0.70
2022-11-12T11:21:03.348Z,0.55
2022-11-12T11:23:48.795Z,1.02
2022-11-12T11:26:25.408Z,0.93
2022-11-12T11:28:59.254Z,0.80
2022-11-12T11:31:41.575Z,1.10
2022-11-12T11:34:17.979Z,1.65
2022-11-12T11:36:48.584Z,0.60
2022-11-12T11:39:18.921Z,0.70
2022-11-12T11:41:52.148Z,0.70
2022-11-12T11:46:50.213Z,0.93
2022-11-12T11:49:23.891Z,0.75
2022-11-12T11:52:07.819Z,0.95
2022-11-12T11:54:53.803Z,0.52
2022-11-12T11:57:29.067Z,1.08
2022-11-12T12:00:02.701Z,1.00
2022-11-12T12:02:46.876Z,0.95
2022-11-12T12:05:30.505Z,0.60
2022-11-12T12:08:17.301Z,0.57
2022-11-12T12:11:08.122Z,0.88
2022-11-12T12:13:55.232Z,0.80
2022-11-12T12:16:27.562Z,1.50
2022-11-12T12:19:14.061Z,0.63
2022-11-12T12:21:45.091Z,0.32
2022-11-12T12:24:18.529Z,0.80
2022-11-12T12:26:49.779Z,0.60
2022-11-12T12:29:20.538Z,0.77
2022-11-12T12:32:03.744Z,1.02
2022-11-12T12:34:36.335Z,0.77
2022-11-12T12:37:11.956Z,0.85
2022-11-12T12:39:59.218Z,0.73
2022-11-12T12:42:37.462Z,0.50
2022-11-12T12:45:23.427Z,1.08
2022-11-12T12:47:51.820Z,0.70
2022-11-12T12:50:20.689Z,1.20
2022-11-12T12:53:05.474Z,0.70
2022-11-12T12:55:40.851Z,0.80
2022-11-12T12:58:28.951Z,0.70
2022-11-12T13:01:04.936Z,0.70
2022-11-12T13:03:44.760Z,1.02
2022-11-12T13:06:21.052Z,0.52
2022-11-12T13:08:50.010Z,0.98
2022-11-12T13:11:55.795Z,0.68
2022-11-12T13:14:32.533Z,0.50
2022-11-12T13:17:00.704Z,0.98
2022-11-12T13:19:28.963Z,0.70
2022-11-12T13:22:15.139Z,0.98
2022-11-12T13:25:01.107Z,0.52
2022-11-12T13:27:42.141Z,1.33
2022-11-12T13:30:16.930Z,0.50
2022-11-12T13:32:50.498Z,1.05
2022-11-12T13:35:19.285Z,0.75
2022-11-12T13:38:05.469Z,0.60
2022-11-12T13:40:39.127Z,0.68
2022-11-12T13:43:16.321Z,1.50
2022-11-12T13:46:12.789Z,1.13
2022-11-12T13:48:51.989Z,0.85
2022-11-12T13:51:37.800Z,0.90
2022-11-12T13:54:25.161Z,0.73
2022-11-12T13:56:52.769Z,0.50
2022-11-12T13:59:21.622Z,0.88
2022-11-12T14:01:49.764Z,0.40
2022-11-12T14:04:19.073Z,0.40
2022-11-12T14:06:50.151Z,0.80
2022-11-12T14:09:26.312Z,0.50
2022-11-12T14:11:59.864Z,0.98
2022-11-12T14:14:28.361Z,1.08
2022-11-12T14:17:19.476Z,0.60
2022-11-12T14:19:50.072Z,0.63
2022-11-12T14:22:20.070Z,0.65
2022-11-12T14:25:00.222Z,0.60
2022-11-12T14:27:28.413Z,0.30
2022-11-12T14:30:06.318Z,0.60
2022-11-12T14:32:38.021Z,0.30
2022-11-12T14:35:18.835Z,0.60
2022-11-12T14:37:49.739Z,0.68
2022-11-12T14:40:18.493Z,0.65
2022-11-12T14:42:49.088Z,0.75
2022-11-12T14:45:21.115Z,0.60
2022-11-12T14:47:49.777Z,0.35
2022-11-12T14:50:29.580Z,1.80
2022-11-12T14:53:03.772Z,0.65
2022-11-12T14:55:41.852Z,0.50
2022-11-12T14:58:14.128Z,0.60
2022-11-12T15:00:43.957Z,0.77
2022-11-12T15:03:21.578Z,1.00
2022-11-12T15:06:09.752Z,0.47
2022-11-12T15:08:38.591Z,0.50
2022-11-12T15:11:21.698Z,0.40
2022-11-12T15:13:50.775Z,0.47
2022-11-12T15:16:28.496Z,0.90
2022-11-12T15:19:16.229Z,1.20
2022-11-12T15:21:52.767Z,4.32
2022-11-12T15:24:23.037Z,1.52
2022-11-12T15:26:51.390Z,0.77
2022-11-12T15:29:24.914Z,0.82
2022-11-12T15:31:54.046Z,0.68
2022-11-12T15:34:38.403Z,0.70
2022-11-12T15:37:07.691Z,0.93
2022-11-12T15:39:40.601Z,0.32
2022-11-12T15:42:20.518Z,0.38
2022-11-12T15:44:48.505Z,0.70
2022-11-12T15:47:24.954Z,0.40
2022-11-12T15:49:56.575Z,0.82
2022-11-12T15:52:24.421Z,0.50
2022-11-12T15:54:52.030Z,0.68
2022-11-12T15:57:21.561Z,0.63
2022-11-12T16:00:06.396Z,0.95
2022-11-12T16:02:35.864Z,0.47
2022-11-12T16:05:03.411Z,0.50
2022-11-12T16:07:31.267Z,1.30
2022-11-12T16:09:58.820Z,0.95
2022-11-12T16:12:26.385Z,0.50
2022-11-12T16:14:53.919Z,0.63
2022-11-12T16:17:21.920Z,0.60
2022-11-12T16:19:49.446Z,0.50
2022-11-12T16:22:16.981Z,0.60
2022-11-12T16:24:44.744Z,0.47
2022-11-12T16:27:15.676Z,0.50
2022-11-12T16:29:43.389Z,0.50
2022-11-12T16:32:14.867Z,1.13
2022-11-12T16:34:42.667Z,0.57
2022-11-12T16:37:12.709Z,0.75
2022-11-12T16:39:40.617Z,0.73
2022-11-12T16:42:10.595Z,0.63
2022-11-12T16:44:38.806Z,0.75
2022-11-12T16:47:06.610Z,0.57
2022-11-12T16:49:38.452Z,0.40
2022-11-12T16:52:06.599Z,0.63
2022-11-12T16:54:34.109Z,0.50
2022-11-12T16:57:01.562Z,0.90
2022-11-12T16:59:29.089Z,0.57
2022-11-12T17:01:56.590Z,0.60
2022-11-12T17:04:27.310Z,0.68
2022-11-12T17:06:54.901Z,1.45
2022-11-12T17:09:22.428Z,0.68
2022-11-12T17:11:49.985Z,0.85
2022-11-12T17:14:19.396Z,0.50
2022-11-12T17:16:48.665Z,0.70
2022-11-12T17:19:16.144Z,0.57
2022-11-12T17:21:46.579Z,0.45
2022-11-12T17:24:14.115Z,1.10
2022-11-12T17:26:41.631Z,2.67
2022-11-12T17:29:09.460Z,3.75
2022-11-12T17:31:37.006Z,3.20
2022-11-12T17:34:07.113Z,2.35
2022-11-12T17:36:36.938Z,1.38
2022-11-12T17:39:07.255Z,0.55
2022-11-12T17:41:34.683Z,0.82
2022-11-12T17:44:02.471Z,0.70
2022-11-12T17:46:30.160Z,2.20
2022-11-12T17:48:57.874Z,1.00
2022-11-12T17:51:27.038Z,1.17
2022-11-12T17:53:54.784Z,0.77
2022-11-12T17:56:23.274Z,5.03
2022-11-12T17:58:51.335Z,18.20
2022-11-12T18:01:20.871Z,11.57
2022-11-12T18:03:50.990Z,5.70
2022-11-12T18:06:19.907Z,7.22
2022-11-12T18:08:47.742Z,2.28
2022-11-12T18:11:15.938Z,0.85
2022-11-12T18:13:43.362Z,2.35
2022-11-12T18:16:19.934Z,0.82
2022-11-12T18:18:48.197Z,1.40
2022-11-12T18:21:16.449Z,1.00
2022-11-12T18:23:44.741Z,0.60
2022-11-12T18:26:15.982Z,0.90
2022-11-12T18:28:43.476Z,1.38
2022-11-12T18:31:12.137Z,1.00
2022-11-12T18:33:39.765Z,1.20
2022-11-12T18:36:08.965Z,1.25
2022-11-12T18:38:37.040Z,1.27
2022-11-12T18:41:04.544Z,3.15
2022-11-12T18:43:32.504Z,1.13
2022-11-12T18:46:00.995Z,1.05
2022-11-12T18:48:29.292Z,0.70
2022-11-12T18:51:00.648Z,0.50
2022-11-12T18:53:29.799Z,1.08
2022-11-12T18:56:00.695Z,0.60
2022-11-12T18:58:34.635Z,0.60
2022-11-12T19:01:06.529Z,0.63
2022-11-12T19:03:34.127Z,0.90
2022-11-12T19:06:02.322Z,1.33
2022-11-12T19:08:29.903Z,1.02
2022-11-12T19:11:04.853Z,0.77
2022-11-12T19:13:32.443Z,0.52
2022-11-12T19:16:04.373Z,0.45
2022-11-12T19:18:32.199Z,0.73
2022-11-12T19:21:03.646Z,0.77
2022-11-12T19:23:31.573Z,1.10
2022-11-12T19:26:02.837Z,1.05
2022-11-12T19:28:30.841Z,1.02
2022-11-12T19:30:58.837Z,0.57
2022-11-12T19:33:26.362Z,0.98
2022-11-12T19:35:53.884Z,1.33
2022-11-12T19:38:21.389Z,4.07
2022-11-12T19:40:48.968Z,2.78
2022-11-12T19:43:16.457Z,4.75
2022-11-12T19:45:44.000Z,6.78
2022-11-12T19:48:11.565Z,11.30
2022-11-12T19:50:39.015Z,12.70
2022-11-12T19:53:06.500Z,8.45
2022-11-12T19:55:39.718Z,7.13
2022-11-12T19:58:07.854Z,6.22
2022-11-12T20:00:35.497Z,3.88
2022-11-12T20:03:03.344Z,3.92
2022-11-12T20:05:30.965Z,5.13
2022-11-12T20:07:58.441Z,3.60
2022-11-12T20:10:25.932Z,3.67
2022-11-12T20:12:53.442Z,13.20
2022-11-12T20:15:22.032Z,6.70
2022-11-12T20:17:49.363Z,12.52
2022-11-12T20:20:17.004Z,5.68
2022-11-12T20:22:44.523Z,6.45
2022-11-12T20:25:11.970Z,3.83
2022-11-12T20:27:39.626Z,3.67
2022-11-12T20:30:08.774Z,9.30
2022-11-12T20:32:36.286Z,9.95
2022-11-12T20:35:12.414Z,3.08
2022-11-12T20:37:42.909Z,4.70
2022-11-12T20:40:10.584Z,3.60
2022-11-12T20:42:38.059Z,2.90
2022-11-12T20:45:05.733Z,2.60
2022-11-12T20:47:33.263Z,2.92
2022-11-12T20:50:00.694Z,2.97
2022-11-12T20:52:28.212Z,2.03
2022-11-12T20:54:55.710Z,1.50
2022-11-12T20:57:23.228Z,2.03
2022-11-12T20:59:51.650Z,2.67
2022-11-12T21:02:19.345Z,1.23
2022-11-12T21:04:48.733Z,2.15
2022-11-12T21:07:16.414Z,1.80
2022-11-12T21:09:48.141Z,2.33
2022-11-12T21:12:16.304Z,2.25
2022-11-12T21:14:49.034Z,5.15
